Time;durP1;ratioP1;P1;durP2;ratioP2;P2;SDS_P1;SDS_P2;PMS_P1;PMS_P2;Temp;Humidity;BMP_temperature;BMP_pressure;BME280_temperature;BME280_humidity;BME280_pressure;Samples;Min_cycle;Max_cycle;Signal;HPM_P1;HPM_P2
2021/05/15 00:00:38;;;;;;;;;;;21.80;48.50;;;;;;4766701;30;20394;-90
2021/05/15 00:03:03;;;;;;;;;;;21.80;48.50;;;;;;4763770;30;20024;-89
2021/05/15 00:05:29;;;;;;;;;;;21.80;48.50;;;;;;4766850;30;19979;-89
2021/05/15 00:07:55;;;;;;;;;;;21.80;48.50;;;;;;4760057;29;19938;-87
2021/05/15 00:10:23;;;;;;;;;;;21.80;48.60;;;;;;4734207;30;19922;-87
2021/05/15 00:12:48;;;;;;;;;;;21.80;48.50;;;;;;4763594;30;19910;-87
2021/05/15 00:15:14;;;;;;;;;;;21.80;48.60;;;;;;4751127;30;20031;-86
2021/05/15 00:17:40;;;;;;;;;;;21.80;48.60;;;;;;4765334;30;20398;-87
2021/05/15 00:20:12;;;;;;;;;;;21.80;48.60;;;;;;4756271;30;19921;-87
2021/05/15 00:22:38;;;;;;;;;;;21.80;48.60;;;;;;4766243;29;19988;-88
2021/05/15 00:25:04;;;;;;;;;;;21.80;48.60;;;;;;4756120;30;19922;-87
2021/05/15 00:27:30;;;;;;;;;;;21.80;48.60;;;;;;4750403;30;20686;-87
2021/05/15 00:29:55;;;;;;;;;;;21.70;48.60;;;;;;4764369;30;19922;-87
2021/05/15 00:32:21;;;;;;;;;;;21.80;48.60;;;;;;4755658;30;19929;-87
2021/05/15 00:34:46;;;;;;;;;;;21.70;48.60;;;;;;4758313;29;20014;-87
2021/05/15 00:37:12;;;;;;;;;;;21.70;48.60;;;;;;4748735;30;19922;-87
2021/05/15 00:39:37;;;;;;;;;;;21.70;48.60;;;;;;4755915;30;20337;-87
2021/05/15 00:42:03;;;;;;;;;;;21.70;48.60;;;;;;4764556;30;19929;-87
2021/05/15 00:44:43;;;;;;;;;;;21.70;48.70;;;;;;4766691;29;20459;-87
2021/05/15 00:47:13;;;;;;;;;;;21.70;48.70;;;;;;4748049;30;20083;-88
2021/05/15 00:49:38;;;;;;;;;;;21.70;48.70;;;;;;4764568;29;19929;-87
2021/05/15 00:52:04;;;;;;;;;;;21.70;48.70;;;;;;4762366;30;20351;-88
2021/05/15 00:54:30;;;;;;;;;;;21.70;48.70;;;;;;4762613;30;19949;-86
2021/05/15 00:56:56;;;;;;;;;;;21.70;48.80;;;;;;4756897;30;20443;-86
2021/05/15 00:59:21;;;;;;;;;;;21.70;48.70;;;;;;4762354;30;19953;-87
2021/05/15 01:01:49;;;;;;;;;;;21.70;48.70;;;;;;4768200;30;19953;-86
2021/05/15 01:04:15;;;;;;;;;;;21.70;48.80;;;;;;4760912;30;19940;-86
2021/05/15 01:06:40;;;;;;;;;;;21.70;48.70;;;;;;4746461;30;20069;-86
2021/05/15 01:09:06;;;;;;;;;;;21.60;48.70;;;;;;4753310;30;20025;-87
2021/05/15 01:11:31;;;;;;;;;;;21.60;48.70;;;;;;4760314;30;20319;-87
2021/05/15 01:13:59;;;;;;;;;;;21.60;48.70;;;;;;4763155;30;19926;-87
2021/05/15 01:16:31;;;;;;;;;;;21.60;48.70;;;;;;4760593;30;20367;-87
2021/05/15 01:18:57;;;;;;;;;;;21.60;48.70;;;;;;4764656;30;19929;-86
2021/05/15 01:21:23;;;;;;;;;;;21.60;48.70;;;;;;4764530;30;20100;-86
2021/05/15 01:23:48;;;;;;;;;;;21.60;48.70;;;;;;4763896;30;20295;-87
2021/05/15 01:26:21;;;;;;;;;;;21.60;48.80;;;;;;4737638;30;19947;-86
2021/05/15 01:28:49;;;;;;;;;;;21.60;48.70;;;;;;4754569;30;19936;-85
2021/05/15 01:31:14;;;;;;;;;;;21.50;48.70;;;;;;4765731;30;19936;-85
2021/05/15 01:33:40;;;;;;;;;;;21.60;48.70;;;;;;4744847;30;19926;-87
2021/05/15 01:36:06;;;;;;;;;;;21.50;48.70;;;;;;4752010;30;20469;-88
2021/05/15 01:38:32;;;;;;;;;;;21.50;48.70;;;;;;4763991;30;20366;-86
2021/05/15 01:41:04;;;;;;;;;;;21.50;48.70;;;;;;4760823;30;19922;-84
2021/05/15 01:43:30;;;;;;;;;;;21.50;48.70;;;;;;4764923;30;19926;-88
2021/05/15 01:45:55;;;;;;;;;;;21.50;48.90;;;;;;4731911;30;19923;-89
2021/05/15 01:48:21;;;;;;;;;;;21.50;49.00;;;;;;4765499;30;19965;-88
2021/05/15 01:51:00;;;;;;;;;;;21.50;48.90;;;;;;4746272;30;19921;-89
2021/05/15 01:53:27;;;;;;;;;;;21.50;48.90;;;;;;4766121;30;20351;-89
2021/05/15 01:55:53;;;;;;;;;;;21.60;49.60;;;;;;4753146;30;20015;-89
2021/05/15 01:58:19;;;;;;;;;;;21.50;49.00;;;;;;4766170;30;19937;-90
2021/05/15 02:00:44;;;;;;;;;;;21.50;48.90;;;;;;4748020;30;19961;-89
2021/05/15 02:03:10;;;;;;;;;;;21.50;49.00;;;;;;4737778;30;19949;-90
2021/05/15 02:05:36;;;;;;;;;;;21.50;49.00;;;;;;4763399;29;19929;-90
2021/05/15 02:08:01;;;;;;;;;;;21.50;49.00;;;;;;4763906;30;19939;-89
2021/05/15 02:10:27;;;;;;;;;;;21.50;48.90;;;;;;4756872;30;19976;-87
2021/05/15 02:12:52;;;;;;;;;;;21.50;49.00;;;;;;4765164;30;20303;-88
2021/05/15 02:15:18;;;;;;;;;;;21.50;48.90;;;;;;4762757;30;20236;-88
2021/05/15 02:17:43;;;;;;;;;;;21.50;49.00;;;;;;4748243;30;19926;-88
2021/05/15 02:20:09;;;;;;;;;;;21.50;49.00;;;;;;4743109;30;20016;-88
2021/05/15 02:22:35;;;;;;;;;;;21.40;49.00;;;;;;4747998;30;20384;-87
2021/05/15 02:25:00;;;;;;;;;;;21.50;49.00;;;;;;4750212;30;19960;-87
2021/05/15 02:27:26;;;;;;;;;;;21.50;49.00;;;;;;4747407;30;19930;-87
2021/05/15 02:29:54;;;;;;;;;;;21.50;49.00;;;;;;4765926;30;19922;-87
2021/05/15 02:32:22;;;;;;;;;;;21.40;49.00;;;;;;4763295;30;20444;-86
2021/05/15 02:34:47;;;;;;;;;;;21.40;49.00;;;;;;4749737;30;19984;-87
2021/05/15 02:37:13;;;;;;;;;;;21.40;49.00;;;;;;4764339;30;19922;-87
2021/05/15 02:39:39;;;;;;;;;;;21.40;49.00;;;;;;4759937;30;19977;-92
2021/05/15 02:42:04;;;;;;;;;;;21.40;49.00;;;;;;4745875;30;19955;-90
2021/05/15 02:44:30;;;;;;;;;;;21.40;49.00;;;;;;4749775;30;20013;-89
2021/05/15 02:46:58;;;;;;;;;;;21.40;49.00;;;;;;4743918;30;19922;-88
2021/05/15 02:49:24;;;;;;;;;;;21.40;49.10;;;;;;4750247;30;19930;-88
2021/05/15 02:51:49;;;;;;;;;;;21.40;49.00;;;;;;4761300;30;19952;-88
2021/05/15 02:54:15;;;;;;;;;;;21.40;49.10;;;;;;4743012;30;19937;-89
2021/05/15 02:56:41;;;;;;;;;;;21.40;49.00;;;;;;4746339;30;19922;-88
2021/05/15 02:59:06;;;;;;;;;;;21.40;49.10;;;;;;4754019;30;19964;-88
2021/05/15 03:01:32;;;;;;;;;;;21.40;49.10;;;;;;4765539;30;19930;-88
2021/05/15 03:03:57;;;;;;;;;;;21.40;49.10;;;;;;4750518;30;20009;-87
2021/05/15 03:06:23;;;;;;;;;;;21.40;49.20;;;;;;4750497;30;20334;-87
2021/05/15 03:08:48;;;;;;;;;;;21.40;49.20;;;;;;4767619;30;19973;-87
2021/05/15 03:11:14;;;;;;;;;;;21.40;49.20;;;;;;4750253;30;19922;-87
2021/05/15 03:13:40;;;;;;;;;;;21.30;49.10;;;;;;4752653;30;19961;-87
2021/05/15 03:16:05;;;;;;;;;;;21.30;49.10;;;;;;4749979;30;19922;-87
2021/05/15 03:18:31;;;;;;;;;;;21.30;49.10;;;;;;4767396;30;19922;-86
2021/05/15 03:20:57;;;;;;;;;;;21.40;49.20;;;;;;4766315;30;19937;-86
2021/05/15 03:23:25;;;;;;;;;;;21.30;49.20;;;;;;4755312;30;20388;-87
2021/05/15 03:25:56;;;;;;;;;;;21.30;49.20;;;;;;4726361;30;20521;-86
2021/05/15 03:28:21;;;;;;;;;;;21.30;49.20;;;;;;4727674;30;20584;-88
2021/05/15 03:30:47;;;;;;;;;;;21.30;49.20;;;;;;4695075;30;19982;-83
2021/05/15 03:33:12;;;;;;;;;;;21.30;49.20;;;;;;4712166;30;19930;-88
2021/05/15 03:35:38;;;;;;;;;;;21.30;49.20;;;;;;4720508;30;20144;-89
2021/05/15 03:38:04;;;;;;;;;;;21.30;49.30;;;;;;4693237;30;20468;-89
2021/05/15 03:40:31;;;;;;;;;;;21.30;49.30;;;;;;4701543;30;20038;-88
2021/05/15 03:42:57;;;;;;;;;;;21.30;49.30;;;;;;4700434;30;19926;-89
2021/05/15 03:45:23;;;;;;;;;;;21.40;49.40;;;;;;4710836;30;20446;-89
2021/05/15 03:47:48;;;;;;;;;;;21.30;49.30;;;;;;4695016;30;19981;-91
2021/05/15 03:50:14;;;;;;;;;;;21.30;49.40;;;;;;4731579;30;20096;-93
2021/05/15 03:52:40;;;;;;;;;;;21.30;49.30;;;;;;4692419;30;19949;-92
2021/05/15 03:55:06;;;;;;;;;;;21.30;49.30;;;;;;4715439;30;20058;-92
2021/05/15 03:57:32;;;;;;;;;;;21.20;49.30;;;;;;4706412;30;19933;-94
2021/05/15 03:59:57;;;;;;;;;;;21.30;49.30;;;;;;4706694;30;19957;-93
2021/05/15 04:02:24;;;;;;;;;;;21.30;49.40;;;;;;4693617;30;20412;-93
2021/05/15 04:04:52;;;;;;;;;;;21.30;49.40;;;;;;4707892;30;19950;-95
2021/05/15 04:07:17;;;;;;;;;;;21.30;49.40;;;;;;4711972;30;19939;-93
2021/05/15 04:09:43;;;;;;;;;;;21.20;49.30;;;;;;4710568;30;19931;-92
2021/05/15 04:12:10;;;;;;;;;;;21.30;49.30;;;;;;4724616;30;19923;-93
2021/05/15 04:14:48;;;;;;;;;;;21.30;49.30;;;;;;4708965;30;20029;-93
2021/05/15 04:17:19;;;;;;;;;;;21.30;49.30;;;;;;4709685;30;19949;-90
2021/05/15 04:19:45;;;;;;;;;;;21.20;49.30;;;;;;4701440;30;19934;-90
2021/05/15 04:22:10;;;;;;;;;;;21.20;49.30;;;;;;4706727;30;19923;-89
2021/05/15 04:24:36;;;;;;;;;;;21.20;49.30;;;;;;4690069;30;19922;-89
2021/05/15 04:27:03;;;;;;;;;;;21.20;49.30;;;;;;4735387;30;19959;-90
2021/05/15 04:29:29;;;;;;;;;;;21.20;49.30;;;;;;4722116;30;19915;-92
2021/05/15 04:31:57;;;;;;;;;;;21.20;49.30;;;;;;4700349;30;20023;-91
2021/05/15 04:34:24;;;;;;;;;;;21.20;49.30;;;;;;4703168;30;20209;-91
2021/05/15 04:36:49;;;;;;;;;;;21.20;49.20;;;;;;4703439;30;19923;-91
2021/05/15 04:39:15;;;;;;;;;;;21.20;49.20;;;;;;4701481;30;20005;-91
2021/05/15 04:41:41;;;;;;;;;;;21.20;49.20;;;;;;4704339;30;20006;-91
2021/05/15 04:44:06;;;;;;;;;;;21.20;49.30;;;;;;4703082;30;20504;-89
2021/05/15 04:46:32;;;;;;;;;;;21.20;49.20;;;;;;4729681;30;19938;-89
2021/05/15 04:48:58;;;;;;;;;;;21.20;49.20;;;;;;4700605;30;20021;-88
2021/05/15 04:51:23;;;;;;;;;;;21.20;49.30;;;;;;4716937;30;20319;-89
2021/05/15 04:53:49;;;;;;;;;;;21.20;49.20;;;;;;4699289;30;19959;-89
2021/05/15 04:56:15;;;;;;;;;;;21.10;49.20;;;;;;4715177;30;19929;-91
2021/05/15 04:58:44;;;;;;;;;;;21.10;49.20;;;;;;4690980;30;20380;-91
2021/05/15 05:01:10;;;;;;;;;;;21.20;49.20;;;;;;4699765;30;19934;-91
2021/05/15 05:03:35;;;;;;;;;;;21.20;49.20;;;;;;4712072;30;19934;-92
2021/05/15 05:06:06;;;;;;;;;;;21.20;49.30;;;;;;4713930;30;19923;-92
2021/05/15 05:08:34;;;;;;;;;;;21.20;49.30;;;;;;4692055;30;20479;-92
2021/05/15 05:11:02;;;;;;;;;;;21.10;49.20;;;;;;4694716;30;20432;-90
2021/05/15 05:13:28;;;;;;;;;;;21.10;49.20;;;;;;4699619;30;19923;-89
2021/05/15 05:15:53;;;;;;;;;;;21.20;49.30;;;;;;4704727;30;19922;-89
2021/05/15 05:18:19;;;;;;;;;;;21.10;49.20;;;;;;4711082;30;20439;-90
2021/05/15 05:20:47;;;;;;;;;;;21.10;49.20;;;;;;4705428;30;19950;-90
2021/05/15 05:23:13;;;;;;;;;;;21.10;49.30;;;;;;4719043;30;19926;-90
2021/05/15 05:25:38;;;;;;;;;;;21.10;49.20;;;;;;4703270;30;19987;-91
2021/05/15 05:28:04;;;;;;;;;;;21.20;49.30;;;;;;4701854;30;20490;-92
2021/05/15 05:30:30;;;;;;;;;;;21.10;49.30;;;;;;4700673;30;19937;-92
2021/05/15 05:32:55;;;;;;;;;;;21.10;49.30;;;;;;4701442;30;19923;-92
2021/05/15 05:35:21;;;;;;;;;;;21.10;49.30;;;;;;4688253;30;20981;-93
2021/05/15 05:37:47;;;;;;;;;;;21.10;49.30;;;;;;4674698;30;19923;-88
2021/05/15 05:40:13;;;;;;;;;;;21.10;49.30;;;;;;4712236;30;19923;-91
2021/05/15 05:42:42;;;;;;;;;;;21.10;49.30;;;;;;4704658;30;19929;-91
2021/05/15 05:45:09;;;;;;;;;;;21.10;49.40;;;;;;4703711;30;19958;-91
2021/05/15 05:47:35;;;;;;;;;;;21.10;49.40;;;;;;4687166;30;20002;-92
2021/05/15 05:50:01;;;;;;;;;;;21.10;49.40;;;;;;4714737;30;20017;-91
2021/05/15 05:52:26;;;;;;;;;;;21.10;49.40;;;;;;4699410;30;19931;-91
2021/05/15 05:54:52;;;;;;;;;;;21.10;49.40;;;;;;4699118;30;20331;-92
2021/05/15 05:57:17;;;;;;;;;;;21.10;49.40;;;;;;4700546;30;19922;-90
2021/05/15 05:59:43;;;;;;;;;;;21.10;49.40;;;;;;4698488;30;19923;-89
2021/05/15 06:02:11;;;;;;;;;;;21.10;49.40;;;;;;4696079;30;20259;-89
2021/05/15 06:04:37;;;;;;;;;;;21.10;49.50;;;;;;4693467;30;19922;-89
2021/05/15 06:07:02;;;;;;;;;;;21.10;49.50;;;;;;4693255;30;19938;-91
2021/05/15 06:09:28;;;;;;;;;;;21.10;49.50;;;;;;4683903;30;19927;-90
2021/05/15 06:11:53;;;;;;;;;;;21.10;49.50;;;;;;4698421;30;20010;-90
2021/05/15 06:14:22;;;;;;;;;;;21.10;49.50;;;;;;4673588;30;20225;-90
2021/05/15 06:16:49;;;;;;;;;;;21.10;49.50;;;;;;4669528;30;19928;-88
2021/05/15 06:19:17;;;;;;;;;;;21.10;50.10;;;;;;4695456;30;19924;-89
2021/05/15 06:21:42;;;;;;;;;;;21.10;49.50;;;;;;4681652;30;19918;-89
2021/05/15 06:24:08;;;;;;;;;;;21.10;49.50;;;;;;4683947;30;19923;-91
2021/05/15 06:26:37;;;;;;;;;;;21.10;49.50;;;;;;4684896;30;19923;-93
2021/05/15 06:29:02;;;;;;;;;;;21.00;49.40;;;;;;4684718;30;19938;-93
2021/05/15 06:31:33;;;;;;;;;;;21.10;49.50;;;;;;4684371;30;20396;-93
2021/05/15 06:33:59;;;;;;;;;;;21.10;49.50;;;;;;4677909;30;19923;-92
2021/05/15 06:36:32;;;;;;;;;;;21.00;49.50;;;;;;4689868;30;19927;-93
2021/05/15 06:39:08;;;;;;;;;;;;;;;;;;;;;
2021/05/15 06:41:34;;;;;;;;;;;21.10;49.50;;;;;;4699469;30;19931;-88
2021/05/15 06:44:00;;;;;;;;;;;21.10;49.50;;;;;;4707865;30;19930;-89
2021/05/15 06:46:26;;;;;;;;;;;21.10;49.50;;;;;;4689106;30;19920;-84
2021/05/15 06:48:52;;;;;;;;;;;21.10;49.50;;;;;;4698993;30;19931;-87
2021/05/15 06:51:17;;;;;;;;;;;21.10;50.30;;;;;;4683651;30;19923;-85
2021/05/15 06:53:43;;;;;;;;;;;21.10;49.80;;;;;;4709350;30;20006;-85
2021/05/15 06:56:08;;;;;;;;;;;21.10;49.90;;;;;;4701457;30;19923;-85
2021/05/15 06:58:34;;;;;;;;;;;21.10;49.80;;;;;;4687385;30;19926;-92
2021/05/15 07:00:59;;;;;;;;;;;21.10;49.80;;;;;;4702195;30;19966;-89
2021/05/15 07:03:25;;;;;;;;;;;21.10;49.70;;;;;;4715996;30;19931;-83
2021/05/15 07:05:51;;;;;;;;;;;21.10;50.10;;;;;;4715424;30;19922;-88
2021/05/15 07:08:16;;;;;;;;;;;21.10;50.00;;;;;;4695140;30;19961;-87
2021/05/15 07:10:42;;;;;;;;;;;21.10;49.90;;;;;;4717724;30;19923;-87
2021/05/15 07:13:18;;;;;;;;;;;21.10;49.80;;;;;;4718370;30;20388;-87
2021/05/15 07:15:44;;;;;;;;;;;21.10;49.80;;;;;;4699657;30;19944;-89
2021/05/15 07:18:09;;;;;;;;;;;21.10;49.80;;;;;;4707711;30;20501;-91
2021/05/15 07:20:35;;;;;;;;;;;21.10;49.70;;;;;;4707856;30;19930;-92
2021/05/15 07:23:01;;;;;;;;;;;21.10;49.60;;;;;;4697886;30;19938;-91
2021/05/15 07:25:29;;;;;;;;;;;21.10;49.80;;;;;;4714138;30;19930;-87
2021/05/15 07:27:54;;;;;;;;;;;21.10;50.00;;;;;;4691218;30;20444;-84
2021/05/15 07:30:20;;;;;;;;;;;21.10;50.20;;;;;;4705590;30;20065;-83
2021/05/15 07:32:47;;;;;;;;;;;21.10;50.10;;;;;;4711737;30;20335;-85
2021/05/15 07:35:18;;;;;;;;;;;21.10;49.90;;;;;;4707268;30;20336;-90
2021/05/15 07:37:44;;;;;;;;;;;21.10;49.80;;;;;;4714108;30;19923;-85
2021/05/15 07:40:17;;;;;;;;;;;21.10;49.70;;;;;;4704675;30;19933;-92
2021/05/15 07:42:43;;;;;;;;;;;21.10;50.30;;;;;;4712431;30;19946;-86
2021/05/15 07:45:09;;;;;;;;;;;21.10;50.20;;;;;;4715187;30;19923;-91
2021/05/15 07:47:35;;;;;;;;;;;21.10;50.30;;;;;;4689045;30;19938;-89
2021/05/15 07:50:01;;;;;;;;;;;21.10;50.20;;;;;;4701165;30;20254;-87
2021/05/15 07:52:28;;;;;;;;;;;21.10;50.10;;;;;;4708949;30;20289;-90
2021/05/15 07:54:53;;;;;;;;;;;21.10;50.20;;;;;;4700666;30;19939;-84
2021/05/15 07:57:19;;;;;;;;;;;21.20;50.60;;;;;;4700847;30;19922;-81
2021/05/15 07:59:45;;;;;;;;;;;21.20;50.20;;;;;;4711657;30;19972;-82
2021/05/15 08:02:10;;;;;;;;;;;21.20;50.10;;;;;;4713137;30;20255;-83
2021/05/15 08:04:36;;;;;;;;;;;21.20;50.00;;;;;;4694479;30;20022;-85
2021/05/15 08:07:02;;;;;;;;;;;21.30;50.10;;;;;;4711690;30;20339;-80
2021/05/15 08:09:28;;;;;;;;;;;21.20;49.90;;;;;;4710424;30;20697;-82
2021/05/15 08:11:54;;;;;;;;;;;21.30;50.10;;;;;;4690877;30;20045;-82
2021/05/15 08:14:19;;;;;;;;;;;21.20;50.20;;;;;;4703656;30;20030;-83
2021/05/15 08:16:45;;;;;;;;;;;21.20;50.00;;;;;;4712116;30;19950;-82
2021/05/15 08:19:10;;;;;;;;;;;21.30;49.90;;;;;;4714703;30;19930;-82
2021/05/15 08:21:36;;;;;;;;;;;21.30;49.80;;;;;;4694343;30;19922;-82
2021/05/15 08:24:02;;;;;;;;;;;21.20;49.70;;;;;;4713609;30;19927;-82
2021/05/15 08:26:28;;;;;;;;;;;21.20;49.70;;;;;;4712250;30;19964;-83
2021/05/15 08:28:54;;;;;;;;;;;21.20;49.60;;;;;;4703808;30;19938;-83
2021/05/15 08:31:20;;;;;;;;;;;21.20;49.60;;;;;;4712147;30;19923;-83
2021/05/15 08:33:45;;;;;;;;;;;21.20;49.60;;;;;;4702070;30;19931;-83
2021/05/15 08:36:11;;;;;;;;;;;21.30;49.60;;;;;;4712274;30;19983;-83
2021/05/15 08:38:38;;;;;;;;;;;21.20;49.50;;;;;;4696750;30;19911;-83
2021/05/15 08:41:03;;;;;;;;;;;21.20;49.40;;;;;;4715357;30;19966;-83
2021/05/15 08:43:31;;;;;;;;;;;21.20;49.40;;;;;;4712979;30;20440;-83
2021/05/15 08:45:59;;;;;;;;;;;21.30;49.40;;;;;;4701416;30;19923;-82
2021/05/15 08:48:28;;;;;;;;;;;21.30;49.40;;;;;;4689919;30;20428;-82
2021/05/15 08:50:54;;;;;;;;;;;21.30;49.40;;;;;;4724142;30;19923;-82
2021/05/15 08:53:20;;;;;;;;;;;21.30;49.30;;;;;;4698709;30;20286;-82
2021/05/15 08:55:46;;;;;;;;;;;21.20;49.30;;;;;;4710212;30;20018;-82
2021/05/15 08:58:11;;;;;;;;;;;21.30;49.30;;;;;;4712957;30;19923;-82
2021/05/15 09:00:38;;;;;;;;;;;21.30;49.20;;;;;;4711761;30;19933;-82
2021/05/15 09:03:05;;;;;;;;;;;21.30;49.20;;;;;;4711414;30;19923;-82
2021/05/15 09:05:33;;;;;;;;;;;21.30;49.10;;;;;;4714167;30;19931;-82
2021/05/15 09:08:01;;;;;;;;;;;21.30;49.20;;;;;;4709947;30;20911;-82
2021/05/15 09:10:31;;;;;;;;;;;21.30;49.20;;;;;;4714895;30;19942;-82
2021/05/15 09:13:08;;;;;;;;;;;21.30;49.20;;;;;;4709890;30;20525;-82
2021/05/15 09:15:37;;;;;;;;;;;21.30;49.10;;;;;;4707865;30;20399;-82
2021/05/15 09:18:07;;;;;;;;;;;21.30;49.10;;;;;;4698862;30;20040;-82
2021/05/15 09:20:35;;;;;;;;;;;21.30;49.10;;;;;;4706067;30;19941;-82
2021/05/15 09:23:11;;;;;;;;;;;21.30;49.00;;;;;;4712891;30;19942;-82
2021/05/15 09:25:37;;;;;;;;;;;21.30;49.00;;;;;;4706262;30;20045;-82
2021/05/15 09:28:04;;;;;;;;;;;21.30;49.00;;;;;;4710271;30;19930;-82
2021/05/15 09:30:32;;;;;;;;;;;21.30;48.90;;;;;;4712967;30;19930;-82
2021/05/15 09:33:09;;;;;;;;;;;21.30;48.80;;;;;;4709538;30;20290;-82
2021/05/15 09:35:36;;;;;;;;;;;21.30;48.90;;;;;;4693089;30;21055;-82
2021/05/15 09:38:03;;;;;;;;;;;21.30;48.90;;;;;;4708546;30;20009;-82
2021/05/15 09:40:30;;;;;;;;;;;21.30;48.80;;;;;;4709680;30;20287;-82
2021/05/15 09:43:07;;;;;;;;;;;21.30;48.80;;;;;;4711733;30;20752;-83
2021/05/15 09:45:35;;;;;;;;;;;21.40;48.90;;;;;;4711749;30;19981;-83
2021/05/15 09:48:09;;;;;;;;;;;21.30;48.80;;;;;;4710491;30;20407;-83
2021/05/15 09:50:40;;;;;;;;;;;21.40;48.90;;;;;;4711136;30;19939;-83
2021/05/15 09:53:14;;;;;;;;;;;21.40;49.50;;;;;;4712727;30;20193;-83
2021/05/15 09:55:41;;;;;;;;;;;21.40;48.90;;;;;;4694532;30;19931;-83
2021/05/15 09:58:09;;;;;;;;;;;21.40;48.90;;;;;;4712976;30;19934;-83
2021/05/15 10:00:50;;;;;;;;;;;21.40;48.80;;;;;;4705082;30;20206;-83
2021/05/15 10:03:18;;;;;;;;;;;21.30;48.80;;;;;;4711524;30;19965;-83
2021/05/15 10:05:44;;;;;;;;;;;21.40;48.90;;;;;;4714812;30;19931;-83
2021/05/15 10:08:11;;;;;;;;;;;21.40;48.90;;;;;;4710542;30;19931;-83
2021/05/15 10:10:38;;;;;;;;;;;21.40;48.90;;;;;;4725856;30;19934;-84
2021/05/15 10:13:05;;;;;;;;;;;21.40;48.80;;;;;;4701685;30;19935;-82
2021/05/15 10:15:32;;;;;;;;;;;21.40;48.90;;;;;;4719828;30;19934;-83
2021/05/15 10:17:59;;;;;;;;;;;21.40;48.80;;;;;;4714059;30;19930;-84
2021/05/15 10:20:26;;;;;;;;;;;21.40;48.70;;;;;;4716420;30;19934;-83
2021/05/15 10:22:53;;;;;;;;;;;21.40;48.70;;;;;;4693509;30;19931;-83
2021/05/15 10:25:21;;;;;;;;;;;21.40;48.80;;;;;;4717119;30;19930;-83
2021/05/15 10:28:01;;;;;;;;;;;21.40;48.80;;;;;;4713042;30;19930;-84
2021/05/15 10:30:27;;;;;;;;;;;21.40;48.80;;;;;;4713169;30;19938;-84
2021/05/15 10:32:57;;;;;;;;;;;21.40;49.50;;;;;;4714984;30;19969;-83
2021/05/15 10:35:30;;;;;;;;;;;21.40;49.00;;;;;;4714155;30;19931;-84
2021/05/15 10:38:04;;;;;;;;;;;21.40;49.00;;;;;;4703126;30;19931;-84
2021/05/15 10:40:41;;;;;;;;;;;21.40;49.00;;;;;;4712768;30;19978;-83
2021/05/15 10:43:10;;;;;;;;;;;21.30;48.90;;;;;;4699726;30;20508;-84
2021/05/15 10:45:41;;;;;;;;;;;21.40;48.90;;;;;;4707371;30;19938;-84
2021/05/15 10:48:24;;;;;;;;;;;21.40;48.90;;;;;;4708383;30;19931;-84
2021/05/15 10:50:58;;;;;;;;;;;21.40;48.90;;;;;;4709822;30;21529;-84
2021/05/15 10:53:26;;;;;;;;;;;21.40;48.90;;;;;;4712244;30;20371;-83
2021/05/15 10:56:01;;;;;;;;;;;21.40;48.90;;;;;;4708607;30;19931;-83
2021/05/15 10:58:41;;;;;;;;;;;21.40;48.90;;;;;;4725053;30;19947;-84
2021/05/15 11:01:15;;;;;;;;;;;21.40;48.90;;;;;;4698803;30;20878;-84
2021/05/15 11:03:46;;;;;;;;;;;21.40;48.90;;;;;;4698547;30;19938;-84
2021/05/15 11:06:13;;;;;;;;;;;21.50;48.90;;;;;;4678882;30;19931;-85
2021/05/15 11:08:42;;;;;;;;;;;21.40;48.80;;;;;;4694536;30;19932;-85
2021/05/15 11:11:10;;;;;;;;;;;21.40;48.80;;;;;;4696290;30;19931;-85
2021/05/15 11:13:47;;;;;;;;;;;21.50;48.80;;;;;;4666193;30;19944;-84
2021/05/15 11:16:14;;;;;;;;;;;21.50;48.90;;;;;;4693356;30;19948;-85
2021/05/15 11:18:43;;;;;;;;;;;21.50;49.40;;;;;;4685220;30;19931;-84
2021/05/15 11:21:09;;;;;;;;;;;21.50;48.80;;;;;;4682032;30;19931;-85
2021/05/15 11:23:48;;;;;;;;;;;21.50;48.80;;;;;;4694359;30;19931;-85
2021/05/15 11:26:20;;;;;;;;;;;21.50;48.80;;;;;;4682267;30;19942;-85
2021/05/15 11:28:47;;;;;;;;;;;21.50;48.80;;;;;;4696454;30;19935;-85
2021/05/15 11:31:19;;;;;;;;;;;21.50;48.80;;;;;;4683348;30;19941;-83
2021/05/15 11:33:47;;;;;;;;;;;21.50;48.80;;;;;;4672044;30;19931;-84
2021/05/15 11:36:16;;;;;;;;;;;21.50;48.70;;;;;;4695790;30;19996;-83
2021/05/15 11:38:47;;;;;;;;;;;21.50;48.70;;;;;;4693665;30;19931;-83
2021/05/15 11:41:14;;;;;;;;;;;21.50;48.70;;;;;;4699569;30;19935;-83
2021/05/15 11:43:40;;;;;;;;;;;21.50;48.80;;;;;;4695011;30;19964;-83
2021/05/15 11:46:09;;;;;;;;;;;21.50;48.70;;;;;;4697487;30;19939;-83
2021/05/15 11:48:40;;;;;;;;;;;21.50;48.70;;;;;;4693922;30;19935;-83
2021/05/15 11:51:11;;;;;;;;;;;21.60;48.80;;;;;;4676668;30;19938;-83
2021/05/15 11:53:41;;;;;;;;;;;21.50;48.70;;;;;;4693129;30;19932;-83
2021/05/15 11:56:16;;;;;;;;;;;21.60;48.70;;;;;;4703419;30;19940;-83
2021/05/15 11:58:45;;;;;;;;;;;21.60;48.70;;;;;;4695999;30;19935;-82
2021/05/15 12:01:36;;;;;;;;;;;21.60;48.70;;;;;;4694613;30;19931;-84
2021/05/15 12:04:05;;;;;;;;;;;21.60;48.70;;;;;;4676143;30;19938;-85
2021/05/15 12:06:32;;;;;;;;;;;21.60;48.70;;;;;;4692866;30;20381;-83
2021/05/15 12:08:59;;;;;;;;;;;21.60;48.60;;;;;;4670784;30;19938;-83
2021/05/15 12:11:26;;;;;;;;;;;21.60;48.60;;;;;;4693631;30;21278;-83
2021/05/15 12:13:55;;;;;;;;;;;21.60;48.60;;;;;;4671894;30;20358;-83
2021/05/15 12:16:22;;;;;;;;;;;21.60;48.60;;;;;;4692771;30;19931;-83
2021/05/15 12:18:49;;;;;;;;;;;21.60;48.70;;;;;;4695047;30;19931;-83
2021/05/15 12:21:24;;;;;;;;;;;21.60;48.70;;;;;;4691737;30;20326;-83
2021/05/15 12:23:51;;;;;;;;;;;21.60;48.70;;;;;;4688642;30;20327;-83
2021/05/15 12:26:18;;;;;;;;;;;21.60;48.70;;;;;;4687163;30;19935;-83
2021/05/15 12:28:46;;;;;;;;;;;21.70;48.80;;;;;;4689038;30;20435;-83
2021/05/15 12:31:42;;;;;;;;;;;21.70;48.80;;;;;;4696679;30;19931;-83
2021/05/15 12:34:10;;;;;;;;;;;21.70;48.80;;;;;;4673516;30;19931;-83
2021/05/15 12:36:37;;;;;;;;;;;21.60;48.70;;;;;;4696340;30;20224;-84
2021/05/15 12:39:09;;;;;;;;;;;21.70;48.70;;;;;;4693461;30;19931;-84
2021/05/15 12:41:37;;;;;;;;;;;21.60;48.70;;;;;;4695386;30;19939;-83
2021/05/15 12:44:11;;;;;;;;;;;21.60;48.70;;;;;;4700957;30;19935;-83
2021/05/15 12:46:40;;;;;;;;;;;21.60;48.70;;;;;;4711357;30;19962;-83
2021/05/15 12:49:08;;;;;;;;;;;21.60;48.60;;;;;;4692017;30;19935;-83
2021/05/15 12:51:56;;;;;;;;;;;21.60;48.60;;;;;;4692584;30;19938;-83
2021/05/15 12:54:26;;;;;;;;;;;21.60;48.60;;;;;;4697189;30;19938;-83
2021/05/15 12:56:57;;;;;;;;;;;21.70;48.60;;;;;;4689943;30;20041;-83
2021/05/15 12:59:28;;;;;;;;;;;21.70;48.50;;;;;;4693416;30;19954;-82
2021/05/15 13:02:07;;;;;;;;;;;21.70;48.50;;;;;;4693231;30;20427;-83
2021/05/15 13:04:34;;;;;;;;;;;21.60;48.50;;;;;;4696091;30;21634;-82
2021/05/15 13:07:01;;;;;;;;;;;21.70;48.40;;;;;;4698343;30;19930;-82
2021/05/15 13:09:48;;;;;;;;;;;21.60;48.40;;;;;;4698426;30;20281;-83
2021/05/15 13:12:16;;;;;;;;;;;21.70;48.30;;;;;;4709336;30;20401;-83
2021/05/15 13:14:48;;;;;;;;;;;21.70;48.30;;;;;;4725598;30;19930;-82
2021/05/15 13:17:15;;;;;;;;;;;21.70;48.30;;;;;;4707060;30;19938;-82
2021/05/15 13:19:42;;;;;;;;;;;21.60;48.30;;;;;;4708968;30;19931;-82
2021/05/15 13:22:08;;;;;;;;;;;21.70;48.50;;;;;;4713640;30;19931;-82
2021/05/15 13:24:35;;;;;;;;;;;21.70;48.40;;;;;;4709345;30;19931;-82
2021/05/15 13:27:02;;;;;;;;;;;21.60;48.40;;;;;;4713897;30;19956;-83
2021/05/15 13:29:31;;;;;;;;;;;21.70;48.50;;;;;;4715267;30;25853;-82
2021/05/15 13:31:58;;;;;;;;;;;21.60;48.40;;;;;;4708947;30;20303;-82
2021/05/15 13:34:25;;;;;;;;;;;21.60;48.30;;;;;;4711726;30;19939;-82
2021/05/15 13:36:52;;;;;;;;;;;21.60;48.40;;;;;;4713852;30;19930;-82
2021/05/15 13:39:20;;;;;;;;;;;21.70;48.50;;;;;;4708382;30;20305;-83
2021/05/15 13:41:46;;;;;;;;;;;21.70;48.50;;;;;;4717579;30;19939;-83
2021/05/15 13:44:13;;;;;;;;;;;21.60;48.40;;;;;;4711145;30;20437;-83
2021/05/15 13:46:40;;;;;;;;;;;21.70;48.40;;;;;;4713255;30;19935;-83
2021/05/15 13:49:06;;;;;;;;;;;21.70;48.40;;;;;;4711468;30;19938;-84
2021/05/15 13:51:33;;;;;;;;;;;21.70;48.40;;;;;;4714039;30;19930;-82
2021/05/15 13:54:00;;;;;;;;;;;21.70;48.30;;;;;;4701851;30;19952;-83
2021/05/15 13:56:29;;;;;;;;;;;21.60;48.30;;;;;;4709351;30;19968;-83
2021/05/15 13:58:57;;;;;;;;;;;21.70;48.20;;;;;;4710901;30;19931;-81
2021/05/15 14:01:23;;;;;;;;;;;21.70;48.10;;;;;;4710192;30;20439;-83
2021/05/15 14:03:50;;;;;;;;;;;21.70;48.10;;;;;;4703442;30;19938;-83
2021/05/15 14:06:17;;;;;;;;;;;21.70;48.10;;;;;;4707428;30;20463;-83
2021/05/15 14:08:43;;;;;;;;;;;21.70;48.00;;;;;;4709237;30;19976;-83
2021/05/15 14:11:11;;;;;;;;;;;21.70;48.00;;;;;;4720500;30;19941;-83
2021/05/15 14:13:38;;;;;;;;;;;21.70;48.00;;;;;;4707474;30;19930;-83
2021/05/15 14:16:10;;;;;;;;;;;21.70;47.90;;;;;;4714682;30;20384;-82
2021/05/15 14:18:36;;;;;;;;;;;21.70;47.90;;;;;;4711378;30;19931;-83
2021/05/15 14:21:03;;;;;;;;;;;21.70;47.90;;;;;;4712652;30;19930;-83